sensor_id;sensor_type;location;lat;lon;timestamp;pressure;altitude;pressure_sealevel;temperature;humidity
10474;BME280;5284;50.446;7.904;2023-06-26T00:03:14;98361.25;;;18.48;100.00
10474;BME280;5284;50.446;7.904;2023-06-26T00:08:17;98349.13;;;18.45;100.00
10474;BME280;5284;50.446;7.904;2023-06-26T00:13:22;98353.44;;;18.39;100.00
10474;BME280;5284;50.446;7.904;2023-06-26T00:18:25;98349.09;;;18.30;100.00
10474;BME280;5284;50.446;7.904;2023-06-26T00:23:28;98354.91;;;18.19;100.00
10474;BME280;5284;50.446;7.904;2023-06-26T00:28:35;98338.16;;;18.09;100.00
10474;BME280;5284;50.446;7.904;2023-06-26T00:33:38;98335.16;;;18.04;100.00
10474;BME280;5284;50.446;7.904;2023-06-26T00:38:40;98342.66;;;17.94;100.00
10474;BME280;5284;50.446;7.904;2023-06-26T00:43:45;98336.84;;;17.83;100.00
10474;BME280;5284;50.446;7.904;2023-06-26T00:48:48;98348.19;;;17.78;100.00
10474;BME280;5284;50.446;7.904;2023-06-26T00:53:51;98345.84;;;17.75;100.00
10474;BME280;5284;50.446;7.904;2023-06-26T00:58:56;98338.13;;;17.72;100.00
10474;BME280;5284;50.446;7.904;2023-06-26T01:04:00;98332.59;;;17.66;100.00
10474;BME280;5284;50.446;7.904;2023-06-26T01:09:04;98327.25;;;17.58;100.00
10474;BME280;5284;50.446;7.904;2023-06-26T01:14:08;98328.00;;;17.44;100.00
10474;BME280;5284;50.446;7.904;2023-06-26T01:19:16;98332.28;;;17.38;100.00
10474;BME280;5284;50.446;7.904;2023-06-26T01:24:32;98326.22;;;17.36;100.00
10474;BME280;5284;50.446;7.904;2023-06-26T01:29:40;98319.16;;;17.35;100.00
10474;BME280;5284;50.446;7.904;2023-06-26T01:34:45;98320.84;;;17.28;100.00
10474;BME280;5284;50.446;7.904;2023-06-26T01:39:48;98317.84;;;17.23;100.00
10474;BME280;5284;50.446;7.904;2023-06-26T01:44:55;98307.09;;;17.15;100.00
10474;BME280;5284;50.446;7.904;2023-06-26T01:50:02;98311.88;;;17.05;100.00
10474;BME280;5284;50.446;7.904;2023-06-26T01:55:20;98304.47;;;16.99;100.00
10474;BME280;5284;50.446;7.904;2023-06-26T02:00:26;98302.78;;;16.98;100.00
10474;BME280;5284;50.446;7.904;2023-06-26T02:05:29;98305.53;;;16.90;100.00
10474;BME280;5284;50.446;7.904;2023-06-26T02:10:34;98303.72;;;16.83;100.00
10474;BME280;5284;50.446;7.904;2023-06-26T02:15:39;98301.91;;;16.76;100.00
10474;BME280;5284;50.446;7.904;2023-06-26T02:20:42;98295.56;;;16.69;100.00
10474;BME280;5284;50.446;7.904;2023-06-26T02:25:46;98304.66;;;16.68;100.00
10474;BME280;5284;50.446;7.904;2023-06-26T02:30:50;98306.16;;;16.62;100.00
10474;BME280;5284;50.446;7.904;2023-06-26T02:35:53;98303.50;;;16.54;100.00
10474;BME280;5284;50.446;7.904;2023-06-26T02:40:56;98306.91;;;16.40;100.00
10474;BME280;5284;50.446;7.904;2023-06-26T02:46:00;98302.88;;;16.36;100.00
10474;BME280;5284;50.446;7.904;2023-06-26T02:51:03;98300.66;;;16.32;100.00
10474;BME280;5284;50.446;7.904;2023-06-26T02:56:07;98291.91;;;16.30;100.00
10474;BME280;5284;50.446;7.904;2023-06-26T03:01:11;98287.91;;;16.26;100.00
10474;BME280;5284;50.446;7.904;2023-06-26T03:06:18;98289.25;;;16.22;100.00
10474;BME280;5284;50.446;7.904;2023-06-26T03:11:21;98286.91;;;16.19;100.00
10474;BME280;5284;50.446;7.904;2023-06-26T03:16:25;98293.66;;;16.15;100.00
10474;BME280;5284;50.446;7.904;2023-06-26T03:21:28;98295.00;;;16.11;100.00
10474;BME280;5284;50.446;7.904;2023-06-26T03:26:31;98292.34;;;16.03;100.00
10474;BME280;5284;50.446;7.904;2023-06-26T03:31:36;98289.78;;;16.01;100.00
10474;BME280;5284;50.446;7.904;2023-06-26T03:36:39;98280.56;;;16.04;100.00
10474;BME280;5284;50.446;7.904;2023-06-26T03:41:43;98278.88;;;16.03;100.00
10474;BME280;5284;50.446;7.904;2023-06-26T03:46:47;98274.84;;;16.07;100.00
10474;BME280;5284;50.446;7.904;2023-06-26T03:51:51;98274.66;;;16.08;100.00
10474;BME280;5284;50.446;7.904;2023-06-26T03:56:56;98280.53;;;16.12;100.00
10474;BME280;5284;50.446;7.904;2023-06-26T04:02:00;98283.91;;;16.14;100.00
10474;BME280;5284;50.446;7.904;2023-06-26T04:07:03;98279.50;;;16.21;100.00
10474;BME280;5284;50.446;7.904;2023-06-26T04:12:06;98295.63;;;16.29;100.00
10474;BME280;5284;50.446;7.904;2023-06-26T04:17:11;98289.59;;;16.35;100.00
10474;BME280;5284;50.446;7.904;2023-06-26T04:22:14;98281.31;;;16.44;100.00
10474;BME280;5284;50.446;7.904;2023-06-26T04:27:16;98285.69;;;16.53;100.00
10474;BME280;5284;50.446;7.904;2023-06-26T04:32:21;98278.22;;;16.63;100.00
10474;BME280;5284;50.446;7.904;2023-06-26T04:37:24;98291.81;;;16.78;100.00
10474;BME280;5284;50.446;7.904;2023-06-26T04:42:27;98287.88;;;16.88;100.00
10474;BME280;5284;50.446;7.904;2023-06-26T04:47:31;98288.31;;;16.99;100.00
10474;BME280;5284;50.446;7.904;2023-06-26T04:52:34;98293.47;;;17.09;100.00
10474;BME280;5284;50.446;7.904;2023-06-26T04:57:37;98313.09;;;17.25;100.00
10474;BME280;5284;50.446;7.904;2023-06-26T05:02:41;98314.00;;;17.48;100.00
10474;BME280;5284;50.446;7.904;2023-06-26T05:07:44;98307.78;;;17.70;100.00
10474;BME280;5284;50.446;7.904;2023-06-26T05:12:47;98300.44;;;17.79;100.00
10474;BME280;5284;50.446;7.904;2023-06-26T05:17:51;98306.94;;;17.70;100.00
10474;BME280;5284;50.446;7.904;2023-06-26T05:22:54;98301.25;;;18.02;100.00
10474;BME280;5284;50.446;7.904;2023-06-26T05:27:58;98297.44;;;18.33;100.00
10474;BME280;5284;50.446;7.904;2023-06-26T05:33:03;98294.84;;;18.68;100.00
10474;BME280;5284;50.446;7.904;2023-06-26T05:38:07;98302.66;;;19.07;100.00
10474;BME280;5284;50.446;7.904;2023-06-26T05:43:11;98295.13;;;19.38;100.00
10474;BME280;5284;50.446;7.904;2023-06-26T05:48:16;98298.94;;;19.85;100.00
10474;BME280;5284;50.446;7.904;2023-06-26T05:53:20;98298.09;;;20.26;100.00
10474;BME280;5284;50.446;7.904;2023-06-26T05:58:23;98308.50;;;20.57;100.00
10474;BME280;5284;50.446;7.904;2023-06-26T06:03:30;98316.47;;;20.92;100.00
10474;BME280;5284;50.446;7.904;2023-06-26T06:08:32;98323.13;;;21.30;100.00
10474;BME280;5284;50.446;7.904;2023-06-26T06:13:35;98325.81;;;21.83;93.96
10474;BME280;5284;50.446;7.904;2023-06-26T06:18:40;98318.75;;;22.15;88.05
10474;BME280;5284;50.446;7.904;2023-06-26T06:23:42;98330.28;;;22.49;84.90
10474;BME280;5284;50.446;7.904;2023-06-26T06:28:45;98327.28;;;22.90;84.42
10474;BME280;5284;50.446;7.904;2023-06-26T06:33:50;98325.16;;;23.05;81.77
10474;BME280;5284;50.446;7.904;2023-06-26T06:38:52;98329.91;;;23.35;77.83
10474;BME280;5284;50.446;7.904;2023-06-26T06:43:55;98334.59;;;23.59;75.77
10474;BME280;5284;50.446;7.904;2023-06-26T06:49:00;98339.03;;;23.53;75.63
10474;BME280;5284;50.446;7.904;2023-06-26T06:54:03;98327.59;;;23.82;75.41
10474;BME280;5284;50.446;7.904;2023-06-26T06:59:06;98329.16;;;24.03;75.33
10474;BME280;5284;50.446;7.904;2023-06-26T07:04:10;98341.66;;;24.10;75.18
10474;BME280;5284;50.446;7.904;2023-06-26T07:09:13;98345.91;;;23.62;75.11
10474;BME280;5284;50.446;7.904;2023-06-26T07:14:16;98344.66;;;23.65;75.25
10474;BME280;5284;50.446;7.904;2023-06-26T07:19:21;98352.06;;;23.38;76.01
10474;BME280;5284;50.446;7.904;2023-06-26T07:24:24;98366.06;;;23.99;73.87
10474;BME280;5284;50.446;7.904;2023-06-26T07:29:27;98370.22;;;24.32;72.74
10474;BME280;5284;50.446;7.904;2023-06-26T07:34:31;98368.50;;;24.69;71.46
10474;BME280;5284;50.446;7.904;2023-06-26T07:39:34;98371.16;;;24.44;71.97
10474;BME280;5284;50.446;7.904;2023-06-26T07:44:38;98373.97;;;24.38;73.15
10474;BME280;5284;50.446;7.904;2023-06-26T07:49:42;98388.84;;;24.11;72.75
10474;BME280;5284;50.446;7.904;2023-06-26T07:54:45;98398.53;;;24.00;75.18
10474;BME280;5284;50.446;7.904;2023-06-26T07:59:48;98391.09;;;24.51;73.65
10474;BME280;5284;50.446;7.904;2023-06-26T08:04:52;98380.66;;;25.51;68.27
10474;BME280;5284;50.446;7.904;2023-06-26T08:09:55;98373.47;;;25.20;66.51
10474;BME280;5284;50.446;7.904;2023-06-26T08:14:58;98382.13;;;25.11;67.92
10474;BME280;5284;50.446;7.904;2023-06-26T08:20:06;98389.19;;;25.61;66.92
10474;BME280;5284;50.446;7.904;2023-06-26T08:25:10;98398.78;;;25.99;64.53
10474;BME280;5284;50.446;7.904;2023-06-26T08:30:13;98389.84;;;25.56;63.50
10474;BME280;5284;50.446;7.904;2023-06-26T08:35:18;98392.59;;;25.14;63.99
10474;BME280;5284;50.446;7.904;2023-06-26T08:40:21;98401.91;;;25.49;65.93
10474;BME280;5284;50.446;7.904;2023-06-26T08:45:24;98390.25;;;25.60;67.56
10474;BME280;5284;50.446;7.904;2023-06-26T08:50:30;98413.44;;;25.69;67.86
10474;BME280;5284;50.446;7.904;2023-06-26T08:55:38;98415.34;;;25.50;68.43
10474;BME280;5284;50.446;7.904;2023-06-26T09:00:43;98413.53;;;25.62;70.17
10474;BME280;5284;50.446;7.904;2023-06-26T09:05:48;98419.31;;;25.36;69.26
10474;BME280;5284;50.446;7.904;2023-06-26T09:10:51;98424.09;;;25.59;69.08
10474;BME280;5284;50.446;7.904;2023-06-26T09:15:54;98418.38;;;25.78;69.57
10474;BME280;5284;50.446;7.904;2023-06-26T09:20:59;98426.75;;;25.47;70.40
10474;BME280;5284;50.446;7.904;2023-06-26T09:26:03;98425.59;;;25.37;70.80
10474;BME280;5284;50.446;7.904;2023-06-26T09:31:07;98447.50;;;25.30;71.73
10474;BME280;5284;50.446;7.904;2023-06-26T09:36:19;98447.94;;;25.88;69.87
10474;BME280;5284;50.446;7.904;2023-06-26T09:41:23;98447.47;;;25.73;70.01
10474;BME280;5284;50.446;7.904;2023-06-26T09:46:26;98461.44;;;25.83;68.60
10474;BME280;5284;50.446;7.904;2023-06-26T09:51:31;98451.44;;;25.95;66.03
10474;BME280;5284;50.446;7.904;2023-06-26T09:56:35;98448.97;;;26.05;66.45
10474;BME280;5284;50.446;7.904;2023-06-26T10:01:41;98446.16;;;26.11;65.72
10474;BME280;5284;50.446;7.904;2023-06-26T10:06:46;98442.66;;;26.52;64.14
10474;BME280;5284;50.446;7.904;2023-06-26T10:11:55;98447.72;;;26.77;63.46
10474;BME280;5284;50.446;7.904;2023-06-26T10:17:01;98445.59;;;26.79;61.13
10474;BME280;5284;50.446;7.904;2023-06-26T10:22:07;98445.34;;;26.40;62.45
10474;BME280;5284;50.446;7.904;2023-06-26T10:27:21;98430.34;;;26.43;63.83
10474;BME280;5284;50.446;7.904;2023-06-26T10:32:25;98445.09;;;26.60;60.43
10474;BME280;5284;50.446;7.904;2023-06-26T10:37:44;98463.50;;;26.64;60.76
10474;BME280;5284;50.446;7.904;2023-06-26T10:42:47;98470.84;;;26.05;61.09
10474;BME280;5284;50.446;7.904;2023-06-26T10:47:52;98472.38;;;26.01;60.58
10474;BME280;5284;50.446;7.904;2023-06-26T10:53:14;98471.53;;;25.82;62.77
10474;BME280;5284;50.446;7.904;2023-06-26T10:58:33;98469.53;;;26.25;62.41
10474;BME280;5284;50.446;7.904;2023-06-26T11:03:37;98475.94;;;26.19;60.65
10474;BME280;5284;50.446;7.904;2023-06-26T11:08:47;98494.41;;;26.35;60.71
10474;BME280;5284;50.446;7.904;2023-06-26T11:13:51;98483.75;;;26.16;59.82
10474;BME280;5284;50.446;7.904;2023-06-26T11:18:58;98486.91;;;27.30;58.14
10474;BME280;5284;50.446;7.904;2023-06-26T11:24:03;98507.34;;;26.46;59.07
10474;BME280;5284;50.446;7.904;2023-06-26T11:29:07;98491.34;;;26.14;59.72
10474;BME280;5284;50.446;7.904;2023-06-26T11:34:11;98507.25;;;26.53;58.34
10474;BME280;5284;50.446;7.904;2023-06-26T11:39:16;98510.53;;;26.43;58.01
10474;BME280;5284;50.446;7.904;2023-06-26T11:44:21;98512.94;;;26.04;58.61
10474;BME280;5284;50.446;7.904;2023-06-26T11:49:24;98509.59;;;26.02;59.23
10474;BME280;5284;50.446;7.904;2023-06-26T11:54:30;98499.56;;;26.90;55.39
10474;BME280;5284;50.446;7.904;2023-06-26T11:59:34;98505.03;;;27.43;54.04
10474;BME280;5284;50.446;7.904;2023-06-26T12:04:38;98517.72;;;27.14;54.69
10474;BME280;5284;50.446;7.904;2023-06-26T12:09:46;98512.41;;;27.88;53.04
10474;BME280;5284;50.446;7.904;2023-06-26T12:14:50;98509.50;;;28.57;49.84
10474;BME280;5284;50.446;7.904;2023-06-26T12:19:53;98523.44;;;28.67;48.09
10474;BME280;5284;50.446;7.904;2023-06-26T12:24:58;98517.00;;;29.34;45.80
10474;BME280;5284;50.446;7.904;2023-06-26T12:30:03;98524.72;;;29.37;45.59
10474;BME280;5284;50.446;7.904;2023-06-26T12:35:09;98528.78;;;29.84;44.57
10474;BME280;5284;50.446;7.904;2023-06-26T12:40:20;98524.44;;;29.05;44.74
10474;BME280;5284;50.446;7.904;2023-06-26T12:45:24;98511.00;;;29.53;43.18
10474;BME280;5284;50.446;7.904;2023-06-26T12:50:37;98522.97;;;29.80;40.91
10474;BME280;5284;50.446;7.904;2023-06-26T12:55:42;98525.94;;;29.95;40.78
10474;BME280;5284;50.446;7.904;2023-06-26T13:00:45;98526.97;;;31.54;39.53
10474;BME280;5284;50.446;7.904;2023-06-26T13:05:48;98520.06;;;31.20;38.46
10474;BME280;5284;50.446;7.904;2023-06-26T13:10:52;98528.09;;;31.89;38.44
10474;BME280;5284;50.446;7.904;2023-06-26T13:15:55;98530.31;;;32.34;36.61
10474;BME280;5284;50.446;7.904;2023-06-26T13:20:57;98533.28;;;32.79;36.68
10474;BME280;5284;50.446;7.904;2023-06-26T13:26:02;98546.06;;;33.05;35.64
10474;BME280;5284;50.446;7.904;2023-06-26T13:31:05;98559.19;;;31.75;37.01
10474;BME280;5284;50.446;7.904;2023-06-26T13:36:08;98560.97;;;32.37;36.77
10474;BME280;5284;50.446;7.904;2023-06-26T13:41:12;98562.22;;;31.47;37.38
10474;BME280;5284;50.446;7.904;2023-06-26T13:46:15;98565.59;;;31.54;37.88
10474;BME280;5284;50.446;7.904;2023-06-26T13:51:18;98547.53;;;32.66;35.99
10474;BME280;5284;50.446;7.904;2023-06-26T13:56:23;98557.16;;;32.48;35.91
10474;BME280;5284;50.446;7.904;2023-06-26T14:01:26;98556.81;;;32.91;35.83
10474;BME280;5284;50.446;7.904;2023-06-26T14:06:29;98557.03;;;32.70;36.64
10474;BME280;5284;50.446;7.904;2023-06-26T14:11:35;98567.66;;;31.37;35.93
10474;BME280;5284;50.446;7.904;2023-06-26T14:16:38;98559.34;;;33.08;35.31
10474;BME280;5284;50.446;7.904;2023-06-26T14:21:41;98567.63;;;33.13;33.49
10474;BME280;5284;50.446;7.904;2023-06-26T14:26:46;98571.97;;;32.79;32.90
10474;BME280;5284;50.446;7.904;2023-06-26T14:31:48;98584.88;;;33.54;32.27
10474;BME280;5284;50.446;7.904;2023-06-26T14:36:53;98562.75;;;33.84;31.88
10474;BME280;5284;50.446;7.904;2023-06-26T14:41:57;98566.53;;;34.43;31.49
10474;BME280;5284;50.446;7.904;2023-06-26T14:47:01;98574.59;;;35.13;30.42
10474;BME280;5284;50.446;7.904;2023-06-26T14:52:05;98572.72;;;33.85;31.97
10474;BME280;5284;50.446;7.904;2023-06-26T14:57:09;98569.81;;;35.23;31.16
10474;BME280;5284;50.446;7.904;2023-06-26T15:02:12;98586.22;;;36.25;30.34
10474;BME280;5284;50.446;7.904;2023-06-26T15:07:15;98597.94;;;36.46;29.05
10474;BME280;5284;50.446;7.904;2023-06-26T15:12:19;98580.00;;;36.33;29.46
10474;BME280;5284;50.446;7.904;2023-06-26T15:17:25;98590.25;;;36.84;31.28
10474;BME280;5284;50.446;7.904;2023-06-26T15:22:28;98594.13;;;36.37;30.13
10474;BME280;5284;50.446;7.904;2023-06-26T15:27:32;98589.91;;;37.33;29.88
10474;BME280;5284;50.446;7.904;2023-06-26T15:32:35;98589.97;;;35.39;31.49
10474;BME280;5284;50.446;7.904;2023-06-26T15:37:38;98575.75;;;34.04;32.13
10474;BME280;5284;50.446;7.904;2023-06-26T15:42:49;98581.81;;;33.36;31.96
10474;BME280;5284;50.446;7.904;2023-06-26T15:47:52;98586.84;;;33.74;32.32
10474;BME280;5284;50.446;7.904;2023-06-26T15:52:55;98587.38;;;36.19;31.41
10474;BME280;5284;50.446;7.904;2023-06-26T15:58:00;98604.66;;;35.39;32.04
10474;BME280;5284;50.446;7.904;2023-06-26T16:03:03;98610.31;;;34.51;32.36
10474;BME280;5284;50.446;7.904;2023-06-26T16:08:06;98603.56;;;34.82;31.41
10474;BME280;5284;50.446;7.904;2023-06-26T16:13:10;98596.38;;;34.76;32.12
10474;BME280;5284;50.446;7.904;2023-06-26T16:18:14;98607.09;;;35.51;30.94
10474;BME280;5284;50.446;7.904;2023-06-26T16:23:17;98600.03;;;35.68;31.32
10474;BME280;5284;50.446;7.904;2023-06-26T16:28:24;98599.47;;;36.00;31.19
10474;BME280;5284;50.446;7.904;2023-06-26T16:33:27;98600.38;;;34.40;32.36
10474;BME280;5284;50.446;7.904;2023-06-26T16:38:30;98603.66;;;32.66;32.84
10474;BME280;5284;50.446;7.904;2023-06-26T16:43:34;98606.03;;;34.84;31.22
10474;BME280;5284;50.446;7.904;2023-06-26T16:48:37;98601.00;;;31.36;33.71
10474;BME280;5284;50.446;7.904;2023-06-26T16:53:40;98612.66;;;30.30;34.75
10474;BME280;5284;50.446;7.904;2023-06-26T16:58:44;98619.09;;;32.52;33.41
10474;BME280;5284;50.446;7.904;2023-06-26T17:03:47;98614.19;;;31.86;33.75
10474;BME280;5284;50.446;7.904;2023-06-26T17:08:50;98616.22;;;32.37;33.54
10474;BME280;5284;50.446;7.904;2023-06-26T17:13:54;98637.38;;;30.85;35.66
10474;BME280;5284;50.446;7.904;2023-06-26T17:18:57;98632.84;;;29.42;36.81
10474;BME280;5284;50.446;7.904;2023-06-26T17:24:00;98631.78;;;28.25;38.84
10474;BME280;5284;50.446;7.904;2023-06-26T17:29:04;98634.69;;;26.66;41.70
10474;BME280;5284;50.446;7.904;2023-06-26T17:34:07;98643.19;;;25.98;42.55
10474;BME280;5284;50.446;7.904;2023-06-26T17:39:11;98640.59;;;24.92;44.42
10474;BME280;5284;50.446;7.904;2023-06-26T17:44:15;98639.56;;;24.24;44.98
10474;BME280;5284;50.446;7.904;2023-06-26T17:49:18;98644.00;;;24.18;46.05
10474;BME280;5284;50.446;7.904;2023-06-26T17:54:20;98651.34;;;23.46;45.65
10474;BME280;5284;50.446;7.904;2023-06-26T17:59:25;98657.09;;;22.85;46.96
10474;BME280;5284;50.446;7.904;2023-06-26T18:04:28;98658.09;;;22.71;47.56
10474;BME280;5284;50.446;7.904;2023-06-26T18:09:30;98655.19;;;22.32;48.07
10474;BME280;5284;50.446;7.904;2023-06-26T18:14:35;98656.75;;;22.20;48.98
10474;BME280;5284;50.446;7.904;2023-06-26T18:19:38;98658.72;;;21.99;48.60
10474;BME280;5284;50.446;7.904;2023-06-26T18:24:40;98670.91;;;21.75;49.70
10474;BME280;5284;50.446;7.904;2023-06-26T18:29:45;98672.91;;;21.67;49.07
10474;BME280;5284;50.446;7.904;2023-06-26T18:34:47;98670.06;;;21.54;49.29
10474;BME280;5284;50.446;7.904;2023-06-26T18:39:50;98678.09;;;21.20;50.79
10474;BME280;5284;50.446;7.904;2023-06-26T18:44:54;98672.28;;;21.23;50.74
10474;BME280;5284;50.446;7.904;2023-06-26T18:49:57;98682.41;;;21.15;50.35
10474;BME280;5284;50.446;7.904;2023-06-26T18:55:00;98681.16;;;20.96;50.96
10474;BME280;5284;50.446;7.904;2023-06-26T19:00:06;98684.38;;;20.85;51.00
10474;BME280;5284;50.446;7.904;2023-06-26T19:05:10;98698.25;;;20.61;51.59
10474;BME280;5284;50.446;7.904;2023-06-26T19:10:14;98702.38;;;20.43;53.08
10474;BME280;5284;50.446;7.904;2023-06-26T19:15:19;98711.81;;;20.32;54.10
10474;BME280;5284;50.446;7.904;2023-06-26T19:20:22;98709.97;;;20.18;53.95
10474;BME280;5284;50.446;7.904;2023-06-26T19:25:25;98714.25;;;20.13;54.62
10474;BME280;5284;50.446;7.904;2023-06-26T19:30:30;98717.41;;;20.02;54.34
10474;BME280;5284;50.446;7.904;2023-06-26T19:35:33;98721.66;;;19.97;55.03
10474;BME280;5284;50.446;7.904;2023-06-26T19:40:37;98720.59;;;19.83;55.51
10474;BME280;5284;50.446;7.904;2023-06-26T19:45:41;98725.44;;;19.73;55.95
10474;BME280;5284;50.446;7.904;2023-06-26T19:50:44;98734.84;;;19.63;57.21
10474;BME280;5284;50.446;7.904;2023-06-26T19:55:47;98744.06;;;19.54;57.51
10474;BME280;5284;50.446;7.904;2023-06-26T20:00:51;98739.91;;;19.43;58.68
10474;BME280;5284;50.446;7.904;2023-06-26T20:05:54;98749.94;;;19.35;58.46
10474;BME280;5284;50.446;7.904;2023-06-26T20:10:57;98755.59;;;19.25;58.99
10474;BME280;5284;50.446;7.904;2023-06-26T20:16:01;98756.16;;;19.13;59.91
10474;BME280;5284;50.446;7.904;2023-06-26T20:21:04;98760.94;;;19.03;60.83
10474;BME280;5284;50.446;7.904;2023-06-26T20:26:07;98765.38;;;18.96;61.17
10474;BME280;5284;50.446;7.904;2023-06-26T20:31:11;98765.13;;;18.83;62.51
10474;BME280;5284;50.446;7.904;2023-06-26T20:36:14;98771.09;;;18.70;63.25
10474;BME280;5284;50.446;7.904;2023-06-26T20:41:18;98773.28;;;18.67;64.17
10474;BME280;5284;50.446;7.904;2023-06-26T20:46:22;98781.25;;;18.60;63.67
10474;BME280;5284;50.446;7.904;2023-06-26T20:51:33;98786.88;;;18.51;64.53
10474;BME280;5284;50.446;7.904;2023-06-26T20:56:37;98789.94;;;18.40;65.95
10474;BME280;5284;50.446;7.904;2023-06-26T21:01:41;98790.47;;;18.36;65.64
10474;BME280;5284;50.446;7.904;2023-06-26T21:06:44;98784.72;;;18.31;66.25
10474;BME280;5284;50.446;7.904;2023-06-26T21:11:48;98794.00;;;18.28;67.42
10474;BME280;5284;50.446;7.904;2023-06-26T21:16:52;98789.28;;;18.22;66.50
10474;BME280;5284;50.446;7.904;2023-06-26T21:21:55;98802.28;;;18.11;68.32
